sensor_id;sensor_type;location;lat;lon;timestamp;P1;durP1;ratioP1;P2;durP2;ratioP2
40433;SDS011;26146;51.114;5.654;2022-08-19T00:02:35;20.92;;;16.52;;
40433;SDS011;26146;51.114;5.654;2022-08-19T00:06:36;23.75;;;17.38;;
40433;SDS011;26146;51.114;5.654;2022-08-19T00:10:39;21.50;;;16.45;;
40433;SDS011;26146;51.114;5.654;2022-08-19T00:14:41;20.92;;;16.08;;
40433;SDS011;26146;51.114;5.654;2022-08-19T00:18:42;19.85;;;15.27;;
40433;SDS011;26146;51.114;5.654;2022-08-19T00:22:45;20.63;;;16.38;;
40433;SDS011;26146;51.114;5.654;2022-08-19T00:26:48;20.13;;;15.18;;
40433;SDS011;26146;51.114;5.654;2022-08-19T00:30:51;20.75;;;15.15;;
40433;SDS011;26146;51.114;5.654;2022-08-19T00:34:53;18.50;;;15.38;;
40433;SDS011;26146;51.114;5.654;2022-08-19T00:38:54;18.40;;;14.07;;
40433;SDS011;26146;51.114;5.654;2022-08-19T00:42:55;18.80;;;14.68;;
40433;SDS011;26146;51.114;5.654;2022-08-19T00:46:57;19.48;;;16.15;;
40433;SDS011;26146;51.114;5.654;2022-08-19T00:50:59;25.27;;;17.50;;
40433;SDS011;26146;51.114;5.654;2022-08-19T00:55:01;19.60;;;14.57;;
40433;SDS011;26146;51.114;5.654;2022-08-19T00:59:02;19.75;;;15.00;;
40433;SDS011;26146;51.114;5.654;2022-08-19T01:03:11;25.67;;;17.67;;
40433;SDS011;26146;51.114;5.654;2022-08-19T01:07:15;23.17;;;16.95;;
40433;SDS011;26146;51.114;5.654;2022-08-19T01:11:19;21.65;;;16.05;;
40433;SDS011;26146;51.114;5.654;2022-08-19T01:15:24;24.75;;;18.20;;
40433;SDS011;26146;51.114;5.654;2022-08-19T01:19:31;23.55;;;18.20;;
40433;SDS011;26146;51.114;5.654;2022-08-19T01:23:36;25.25;;;18.38;;
40433;SDS011;26146;51.114;5.654;2022-08-19T01:27:47;23.15;;;17.90;;
40433;SDS011;26146;51.114;5.654;2022-08-19T01:31:50;25.57;;;19.83;;
40433;SDS011;26146;51.114;5.654;2022-08-19T01:35:52;26.45;;;19.80;;
40433;SDS011;26146;51.114;5.654;2022-08-19T01:39:53;27.45;;;20.27;;
40433;SDS011;26146;51.114;5.654;2022-08-19T01:43:54;30.27;;;21.83;;
40433;SDS011;26146;51.114;5.654;2022-08-19T01:47:56;28.42;;;21.05;;
40433;SDS011;26146;51.114;5.654;2022-08-19T01:51:58;30.05;;;21.80;;
40433;SDS011;26146;51.114;5.654;2022-08-19T01:56:00;32.17;;;22.02;;
40433;SDS011;26146;51.114;5.654;2022-08-19T02:00:03;32.25;;;23.50;;
40433;SDS011;26146;51.114;5.654;2022-08-19T02:04:07;32.88;;;22.83;;
40433;SDS011;26146;51.114;5.654;2022-08-19T02:08:08;34.08;;;24.13;;
40433;SDS011;26146;51.114;5.654;2022-08-19T02:12:10;37.40;;;25.48;;
40433;SDS011;26146;51.114;5.654;2022-08-19T02:16:11;37.45;;;24.58;;
40433;SDS011;26146;51.114;5.654;2022-08-19T02:20:15;37.53;;;25.50;;
40433;SDS011;26146;51.114;5.654;2022-08-19T02:24:17;36.58;;;25.48;;
40433;SDS011;26146;51.114;5.654;2022-08-19T02:28:18;37.40;;;26.13;;
40433;SDS011;26146;51.114;5.654;2022-08-19T02:32:19;41.83;;;25.92;;
40433;SDS011;26146;51.114;5.654;2022-08-19T02:36:20;38.22;;;26.02;;
40433;SDS011;26146;51.114;5.654;2022-08-19T02:40:21;41.70;;;26.10;;
40433;SDS011;26146;51.114;5.654;2022-08-19T02:44:22;39.15;;;25.40;;
40433;SDS011;26146;51.114;5.654;2022-08-19T02:48:24;39.63;;;25.58;;
40433;SDS011;26146;51.114;5.654;2022-08-19T02:52:25;38.17;;;25.05;;
40433;SDS011;26146;51.114;5.654;2022-08-19T02:56:27;38.63;;;24.88;;
40433;SDS011;26146;51.114;5.654;2022-08-19T03:00:28;37.67;;;24.88;;
40433;SDS011;26146;51.114;5.654;2022-08-19T03:04:29;36.75;;;24.90;;
40433;SDS011;26146;51.114;5.654;2022-08-19T03:08:30;40.72;;;25.88;;
40433;SDS011;26146;51.114;5.654;2022-08-19T03:12:31;42.70;;;26.70;;
40433;SDS011;26146;51.114;5.654;2022-08-19T03:16:39;44.35;;;27.13;;
40433;SDS011;26146;51.114;5.654;2022-08-19T03:20:46;45.03;;;28.30;;
40433;SDS011;26146;51.114;5.654;2022-08-19T03:24:49;43.60;;;27.80;;
40433;SDS011;26146;51.114;5.654;2022-08-19T03:28:51;43.67;;;27.23;;
40433;SDS011;26146;51.114;5.654;2022-08-19T03:32:52;45.33;;;27.42;;
40433;SDS011;26146;51.114;5.654;2022-08-19T03:36:54;45.63;;;29.02;;
40433;SDS011;26146;51.114;5.654;2022-08-19T03:41:02;44.95;;;29.17;;
40433;SDS011;26146;51.114;5.654;2022-08-19T03:45:08;53.60;;;30.33;;
40433;SDS011;26146;51.114;5.654;2022-08-19T03:49:10;48.10;;;29.67;;
40433;SDS011;26146;51.114;5.654;2022-08-19T03:53:14;52.17;;;29.50;;
40433;SDS011;26146;51.114;5.654;2022-08-19T03:57:15;50.72;;;29.58;;
40433;SDS011;26146;51.114;5.654;2022-08-19T04:01:19;47.83;;;29.35;;
40433;SDS011;26146;51.114;5.654;2022-08-19T04:05:22;51.33;;;30.48;;
40433;SDS011;26146;51.114;5.654;2022-08-19T04:09:23;48.33;;;30.15;;
40433;SDS011;26146;51.114;5.654;2022-08-19T04:13:25;50.80;;;28.95;;
40433;SDS011;26146;51.114;5.654;2022-08-19T04:17:28;49.28;;;29.67;;
40433;SDS011;26146;51.114;5.654;2022-08-19T04:21:28;50.15;;;29.48;;
40433;SDS011;26146;51.114;5.654;2022-08-19T04:25:34;49.97;;;29.30;;
40433;SDS011;26146;51.114;5.654;2022-08-19T04:29:39;53.25;;;29.83;;
40433;SDS011;26146;51.114;5.654;2022-08-19T04:33:43;52.03;;;30.08;;
40433;SDS011;26146;51.114;5.654;2022-08-19T04:37:44;52.33;;;30.50;;
40433;SDS011;26146;51.114;5.654;2022-08-19T04:41:45;54.80;;;30.08;;
40433;SDS011;26146;51.114;5.654;2022-08-19T04:46:09;62.17;;;32.55;;
40433;SDS011;26146;51.114;5.654;2022-08-19T04:50:11;56.45;;;31.48;;
40433;SDS011;26146;51.114;5.654;2022-08-19T04:54:15;56.70;;;31.52;;
40433;SDS011;26146;51.114;5.654;2022-08-19T04:58:18;59.95;;;31.80;;
40433;SDS011;26146;51.114;5.654;2022-08-19T05:02:18;55.83;;;30.45;;
40433;SDS011;26146;51.114;5.654;2022-08-19T05:06:20;57.63;;;30.65;;
40433;SDS011;26146;51.114;5.654;2022-08-19T05:10:22;55.72;;;31.25;;
40433;SDS011;26146;51.114;5.654;2022-08-19T05:14:25;56.70;;;30.27;;
40433;SDS011;26146;51.114;5.654;2022-08-19T05:18:29;54.22;;;30.25;;
40433;SDS011;26146;51.114;5.654;2022-08-19T05:22:49;51.90;;;28.95;;
40433;SDS011;26146;51.114;5.654;2022-08-19T05:26:50;54.75;;;28.95;;
40433;SDS011;26146;51.114;5.654;2022-08-19T05:30:52;51.13;;;28.13;;
40433;SDS011;26146;51.114;5.654;2022-08-19T05:34:55;52.85;;;28.38;;
40433;SDS011;26146;51.114;5.654;2022-08-19T05:38:57;50.15;;;27.27;;
40433;SDS011;26146;51.114;5.654;2022-08-19T05:42:57;52.97;;;28.67;;
40433;SDS011;26146;51.114;5.654;2022-08-19T05:46:59;50.97;;;27.65;;
40433;SDS011;26146;51.114;5.654;2022-08-19T05:51:05;47.58;;;25.60;;
40433;SDS011;26146;51.114;5.654;2022-08-19T05:55:09;45.53;;;25.98;;
40433;SDS011;26146;51.114;5.654;2022-08-19T05:59:10;44.30;;;25.10;;
40433;SDS011;26146;51.114;5.654;2022-08-19T06:03:14;37.97;;;22.23;;
40433;SDS011;26146;51.114;5.654;2022-08-19T06:07:15;44.90;;;23.17;;
40433;SDS011;26146;51.114;5.654;2022-08-19T06:11:21;40.13;;;22.38;;
40433;SDS011;26146;51.114;5.654;2022-08-19T06:15:22;38.70;;;22.33;;
40433;SDS011;26146;51.114;5.654;2022-08-19T06:19:27;38.45;;;22.70;;
40433;SDS011;26146;51.114;5.654;2022-08-19T06:23:30;37.33;;;21.08;;
40433;SDS011;26146;51.114;5.654;2022-08-19T06:27:31;35.10;;;19.73;;
40433;SDS011;26146;51.114;5.654;2022-08-19T06:31:33;39.22;;;20.45;;
40433;SDS011;26146;51.114;5.654;2022-08-19T06:35:38;33.65;;;18.67;;
40433;SDS011;26146;51.114;5.654;2022-08-19T06:39:42;35.70;;;18.23;;
40433;SDS011;26146;51.114;5.654;2022-08-19T06:43:46;33.85;;;17.95;;
40433;SDS011;26146;51.114;5.654;2022-08-19T06:47:49;29.50;;;16.23;;
40433;SDS011;26146;51.114;5.654;2022-08-19T06:51:49;27.65;;;15.27;;
40433;SDS011;26146;51.114;5.654;2022-08-19T06:55:51;28.45;;;15.43;;
40433;SDS011;26146;51.114;5.654;2022-08-19T06:59:57;27.98;;;14.48;;
40433;SDS011;26146;51.114;5.654;2022-08-19T07:04:00;33.40;;;16.90;;
40433;SDS011;26146;51.114;5.654;2022-08-19T07:08:03;29.00;;;15.20;;
40433;SDS011;26146;51.114;5.654;2022-08-19T07:12:06;27.83;;;15.45;;
40433;SDS011;26146;51.114;5.654;2022-08-19T07:16:11;25.88;;;14.88;;
40433;SDS011;26146;51.114;5.654;2022-08-19T07:20:15;22.65;;;13.00;;
40433;SDS011;26146;51.114;5.654;2022-08-19T07:24:16;27.75;;;14.95;;
40433;SDS011;26146;51.114;5.654;2022-08-19T07:28:17;26.92;;;14.27;;
40433;SDS011;26146;51.114;5.654;2022-08-19T07:32:18;20.63;;;11.82;;
40433;SDS011;26146;51.114;5.654;2022-08-19T07:36:20;19.83;;;10.60;;
40433;SDS011;26146;51.114;5.654;2022-08-19T07:40:23;20.17;;;10.80;;
40433;SDS011;26146;51.114;5.654;2022-08-19T07:44:27;19.02;;;10.10;;
40433;SDS011;26146;51.114;5.654;2022-08-19T07:48:28;21.23;;;10.37;;
40433;SDS011;26146;51.114;5.654;2022-08-19T07:52:29;19.25;;;10.32;;
40433;SDS011;26146;51.114;5.654;2022-08-19T07:56:30;20.40;;;10.30;;
40433;SDS011;26146;51.114;5.654;2022-08-19T08:00:31;17.42;;;9.93;;
40433;SDS011;26146;51.114;5.654;2022-08-19T08:04:32;18.55;;;9.75;;
40433;SDS011;26146;51.114;5.654;2022-08-19T08:08:52;23.33;;;12.00;;
40433;SDS011;26146;51.114;5.654;2022-08-19T08:13:11;18.88;;;10.43;;
40433;SDS011;26146;51.114;5.654;2022-08-19T08:17:13;18.77;;;9.93;;
40433;SDS011;26146;51.114;5.654;2022-08-19T08:21:15;17.50;;;10.63;;
40433;SDS011;26146;51.114;5.654;2022-08-19T08:25:17;18.33;;;9.00;;
40433;SDS011;26146;51.114;5.654;2022-08-19T08:29:21;19.45;;;9.60;;
40433;SDS011;26146;51.114;5.654;2022-08-19T08:33:22;19.40;;;10.32;;
40433;SDS011;26146;51.114;5.654;2022-08-19T08:37:24;17.08;;;8.77;;
40433;SDS011;26146;51.114;5.654;2022-08-19T08:45:33;17.40;;;9.07;;
40433;SDS011;26146;51.114;5.654;2022-08-19T08:49:44;18.13;;;8.70;;
40433;SDS011;26146;51.114;5.654;2022-08-19T08:53:50;16.40;;;8.32;;
40433;SDS011;26146;51.114;5.654;2022-08-19T09:02:00;17.13;;;8.00;;
40433;SDS011;26146;51.114;5.654;2022-08-19T09:06:03;13.98;;;7.40;;
40433;SDS011;26146;51.114;5.654;2022-08-19T09:10:17;16.45;;;7.85;;
40433;SDS011;26146;51.114;5.654;2022-08-19T09:18:57;11.98;;;5.50;;
40433;SDS011;26146;51.114;5.654;2022-08-19T09:23:04;11.45;;;5.45;;
40433;SDS011;26146;51.114;5.654;2022-08-19T09:27:05;10.48;;;4.55;;
40433;SDS011;26146;51.114;5.654;2022-08-19T09:31:06;10.15;;;4.70;;
40433;SDS011;26146;51.114;5.654;2022-08-19T09:35:07;11.05;;;4.60;;
40433;SDS011;26146;51.114;5.654;2022-08-19T09:39:12;9.32;;;4.78;;
40433;SDS011;26146;51.114;5.654;2022-08-19T09:43:13;10.38;;;4.88;;
40433;SDS011;26146;51.114;5.654;2022-08-19T09:47:14;12.07;;;5.00;;
40433;SDS011;26146;51.114;5.654;2022-08-19T09:51:19;9.70;;;4.28;;
40433;SDS011;26146;51.114;5.654;2022-08-19T09:55:25;10.77;;;5.43;;
40433;SDS011;26146;51.114;5.654;2022-08-19T09:59:26;11.35;;;5.22;;
40433;SDS011;26146;51.114;5.654;2022-08-19T10:03:29;12.70;;;5.78;;
40433;SDS011;26146;51.114;5.654;2022-08-19T10:07:30;12.20;;;5.18;;
40433;SDS011;26146;51.114;5.654;2022-08-19T10:11:32;8.57;;;4.45;;
40433;SDS011;26146;51.114;5.654;2022-08-19T10:15:34;10.93;;;4.68;;
40433;SDS011;26146;51.114;5.654;2022-08-19T10:19:35;10.63;;;4.65;;
40433;SDS011;26146;51.114;5.654;2022-08-19T10:23:37;11.32;;;3.90;;
40433;SDS011;26146;51.114;5.654;2022-08-19T10:27:39;10.07;;;3.72;;
40433;SDS011;26146;51.114;5.654;2022-08-19T10:31:40;8.38;;;3.47;;
40433;SDS011;26146;51.114;5.654;2022-08-19T10:35:43;7.53;;;3.33;;
40433;SDS011;26146;51.114;5.654;2022-08-19T10:39:46;9.30;;;3.00;;
40433;SDS011;26146;51.114;5.654;2022-08-19T10:43:51;8.32;;;3.03;;
40433;SDS011;26146;51.114;5.654;2022-08-19T10:47:54;7.32;;;2.85;;
40433;SDS011;26146;51.114;5.654;2022-08-19T10:51:56;8.75;;;2.90;;
40433;SDS011;26146;51.114;5.654;2022-08-19T10:56:15;9.93;;;3.40;;
40433;SDS011;26146;51.114;5.654;2022-08-19T11:00:34;9.25;;;4.10;;
40433;SDS011;26146;51.114;5.654;2022-08-19T11:04:36;9.30;;;3.55;;
40433;SDS011;26146;51.114;5.654;2022-08-19T11:08:38;7.10;;;3.20;;
40433;SDS011;26146;51.114;5.654;2022-08-19T11:12:42;8.25;;;3.42;;
40433;SDS011;26146;51.114;5.654;2022-08-19T11:16:43;8.70;;;3.20;;
40433;SDS011;26146;51.114;5.654;2022-08-19T11:20:46;9.65;;;3.50;;
40433;SDS011;26146;51.114;5.654;2022-08-19T11:24:47;8.77;;;2.95;;
40433;SDS011;26146;51.114;5.654;2022-08-19T11:28:48;7.95;;;2.70;;
40433;SDS011;26146;51.114;5.654;2022-08-19T11:36:54;9.00;;;2.92;;
40433;SDS011;26146;51.114;5.654;2022-08-19T11:41:00;7.18;;;2.72;;
40433;SDS011;26146;51.114;5.654;2022-08-19T11:45:03;8.30;;;3.10;;
40433;SDS011;26146;51.114;5.654;2022-08-19T11:49:05;8.82;;;2.78;;
40433;SDS011;26146;51.114;5.654;2022-08-19T11:53:09;7.20;;;2.83;;
40433;SDS011;26146;51.114;5.654;2022-08-19T11:57:10;7.32;;;2.50;;
40433;SDS011;26146;51.114;5.654;2022-08-19T12:01:12;8.48;;;2.63;;
40433;SDS011;26146;51.114;5.654;2022-08-19T12:05:16;7.07;;;2.45;;
40433;SDS011;26146;51.114;5.654;2022-08-19T12:09:17;8.18;;;2.58;;
40433;SDS011;26146;51.114;5.654;2022-08-19T12:13:18;9.63;;;3.00;;
40433;SDS011;26146;51.114;5.654;2022-08-19T12:17:19;6.75;;;2.60;;
40433;SDS011;26146;51.114;5.654;2022-08-19T12:21:24;7.65;;;2.50;;
40433;SDS011;26146;51.114;5.654;2022-08-19T12:25:28;8.32;;;2.55;;
40433;SDS011;26146;51.114;5.654;2022-08-19T12:29:35;9.93;;;2.70;;
40433;SDS011;26146;51.114;5.654;2022-08-19T12:33:36;6.38;;;2.40;;
40433;SDS011;26146;51.114;5.654;2022-08-19T12:37:41;6.30;;;2.40;;
40433;SDS011;26146;51.114;5.654;2022-08-19T12:41:44;7.43;;;2.20;;
40433;SDS011;26146;51.114;5.654;2022-08-19T12:45:49;8.63;;;2.20;;
40433;SDS011;26146;51.114;5.654;2022-08-19T12:49:53;7.75;;;2.10;;
40433;SDS011;26146;51.114;5.654;2022-08-19T12:53:54;7.75;;;2.25;;
40433;SDS011;26146;51.114;5.654;2022-08-19T12:57:55;10.13;;;1.90;;
40433;SDS011;26146;51.114;5.654;2022-08-19T13:02:02;6.55;;;1.95;;
40433;SDS011;26146;51.114;5.654;2022-08-19T13:06:08;6.03;;;1.90;;
40433;SDS011;26146;51.114;5.654;2022-08-19T13:10:14;7.07;;;2.03;;
40433;SDS011;26146;51.114;5.654;2022-08-19T13:14:17;7.05;;;1.80;;
40433;SDS011;26146;51.114;5.654;2022-08-19T13:18:19;6.18;;;1.90;;
40433;SDS011;26146;51.114;5.654;2022-08-19T13:22:19;6.97;;;2.00;;
40433;SDS011;26146;51.114;5.654;2022-08-19T13:26:21;7.32;;;2.00;;
40433;SDS011;26146;51.114;5.654;2022-08-19T13:30:22;7.32;;;2.08;;
40433;SDS011;26146;51.114;5.654;2022-08-19T13:34:42;6.70;;;2.20;;
40433;SDS011;26146;51.114;5.654;2022-08-19T13:38:43;5.63;;;1.88;;
40433;SDS011;26146;51.114;5.654;2022-08-19T13:42:46;6.15;;;1.92;;
40433;SDS011;26146;51.114;5.654;2022-08-19T13:46:49;6.55;;;2.00;;
40433;SDS011;26146;51.114;5.654;2022-08-19T13:50:54;6.53;;;2.13;;
40433;SDS011;26146;51.114;5.654;2022-08-19T13:54:55;6.00;;;2.23;;
40433;SDS011;26146;51.114;5.654;2022-08-19T13:58:56;7.22;;;2.20;;
40433;SDS011;26146;51.114;5.654;2022-08-19T14:02:57;7.18;;;2.30;;
40433;SDS011;26146;51.114;5.654;2022-08-19T14:07:03;7.80;;;1.98;;
40433;SDS011;26146;51.114;5.654;2022-08-19T14:11:04;7.90;;;2.13;;
40433;SDS011;26146;51.114;5.654;2022-08-19T14:15:08;8.90;;;2.33;;
40433;SDS011;26146;51.114;5.654;2022-08-19T14:19:11;7.85;;;2.55;;
40433;SDS011;26146;51.114;5.654;2022-08-19T14:23:12;7.55;;;2.30;;
40433;SDS011;26146;51.114;5.654;2022-08-19T14:27:13;6.40;;;2.20;;
40433;SDS011;26146;51.114;5.654;2022-08-19T14:31:19;6.10;;;2.25;;
40433;SDS011;26146;51.114;5.654;2022-08-19T14:35:24;5.55;;;2.10;;
40433;SDS011;26146;51.114;5.654;2022-08-19T14:39:27;5.97;;;2.17;;
40433;SDS011;26146;51.114;5.654;2022-08-19T14:43:30;7.72;;;2.40;;
40433;SDS011;26146;51.114;5.654;2022-08-19T14:47:31;7.67;;;2.30;;
40433;SDS011;26146;51.114;5.654;2022-08-19T14:51:32;8.35;;;2.60;;
40433;SDS011;26146;51.114;5.654;2022-08-19T14:55:34;7.82;;;2.13;;
40433;SDS011;26146;51.114;5.654;2022-08-19T14:59:35;8.52;;;2.20;;
40433;SDS011;26146;51.114;5.654;2022-08-19T15:03:37;6.00;;;2.10;;
40433;SDS011;26146;51.114;5.654;2022-08-19T15:07:39;6.22;;;1.80;;
40433;SDS011;26146;51.114;5.654;2022-08-19T15:11:42;6.78;;;2.17;;
40433;SDS011;26146;51.114;5.654;2022-08-19T15:15:43;6.03;;;1.85;;
40433;SDS011;26146;51.114;5.654;2022-08-19T15:23:48;8.20;;;2.00;;
40433;SDS011;26146;51.114;5.654;2022-08-19T15:31:53;6.18;;;1.80;;
40433;SDS011;26146;51.114;5.654;2022-08-19T15:35:57;6.55;;;1.60;;
40433;SDS011;26146;51.114;5.654;2022-08-19T15:40:03;6.13;;;1.50;;
40433;SDS011;26146;51.114;5.654;2022-08-19T15:44:09;4.95;;;1.48;;
40433;SDS011;26146;51.114;5.654;2022-08-19T15:48:13;5.05;;;1.58;;
40433;SDS011;26146;51.114;5.654;2022-08-19T15:52:14;5.65;;;1.38;;
40433;SDS011;26146;51.114;5.654;2022-08-19T15:56:19;5.35;;;1.40;;
40433;SDS011;26146;51.114;5.654;2022-08-19T16:00:20;4.57;;;1.27;;
40433;SDS011;26146;51.114;5.654;2022-08-19T16:04:40;4.78;;;1.30;;
40433;SDS011;26146;51.114;5.654;2022-08-19T16:09:00;6.15;;;1.40;;
40433;SDS011;26146;51.114;5.654;2022-08-19T16:13:04;4.68;;;1.50;;
40433;SDS011;26146;51.114;5.654;2022-08-19T16:17:05;5.22;;;1.65;;
40433;SDS011;26146;51.114;5.654;2022-08-19T16:21:08;5.22;;;1.55;;
40433;SDS011;26146;51.114;5.654;2022-08-19T16:25:13;4.90;;;1.60;;
40433;SDS011;26146;51.114;5.654;2022-08-19T16:29:14;5.35;;;1.70;;
40433;SDS011;26146;51.114;5.654;2022-08-19T16:33:17;5.07;;;1.60;;
40433;SDS011;26146;51.114;5.654;2022-08-19T16:37:18;6.03;;;2.00;;
40433;SDS011;26146;51.114;5.654;2022-08-19T16:41:24;7.82;;;1.80;;
40433;SDS011;26146;51.114;5.654;2022-08-19T16:45:27;6.07;;;1.65;;
40433;SDS011;26146;51.114;5.654;2022-08-19T16:49:28;4.70;;;1.60;;
40433;SDS011;26146;51.114;5.654;2022-08-19T16:53:32;5.70;;;1.70;;
40433;SDS011;26146;51.114;5.654;2022-08-19T16:57:34;5.82;;;1.80;;
40433;SDS011;26146;51.114;5.654;2022-08-19T17:01:35;5.68;;;1.67;;
40433;SDS011;26146;51.114;5.654;2022-08-19T17:05:51;5.45;;;1.70;;
40433;SDS011;26146;51.114;5.654;2022-08-19T17:09:53;4.85;;;1.75;;
40433;SDS011;26146;51.114;5.654;2022-08-19T17:13:55;6.22;;;1.80;;
40433;SDS011;26146;51.114;5.654;2022-08-19T17:17:58;5.82;;;1.80;;
40433;SDS011;26146;51.114;5.654;2022-08-19T17:22:00;5.25;;;1.70;;
40433;SDS011;26146;51.114;5.654;2022-08-19T17:26:01;4.85;;;1.55;;
40433;SDS011;26146;51.114;5.654;2022-08-19T17:30:03;9.63;;;2.30;;
40433;SDS011;26146;51.114;5.654;2022-08-19T17:34:06;6.43;;;2.00;;
40433;SDS011;26146;51.114;5.654;2022-08-19T17:38:10;9.17;;;1.90;;
40433;SDS011;26146;51.114;5.654;2022-08-19T17:42:14;7.28;;;2.13;;
40433;SDS011;26146;51.114;5.654;2022-08-19T17:46:15;8.13;;;2.20;;
40433;SDS011;26146;51.114;5.654;2022-08-19T17:50:19;8.27;;;2.17;;
40433;SDS011;26146;51.114;5.654;2022-08-19T17:54:21;8.73;;;2.67;;
40433;SDS011;26146;51.114;5.654;2022-08-19T17:58:22;9.00;;;2.95;;
40433;SDS011;26146;51.114;5.654;2022-08-19T18:02:24;7.75;;;2.95;;
40433;SDS011;26146;51.114;5.654;2022-08-19T18:06:25;8.43;;;3.38;;
40433;SDS011;26146;51.114;5.654;2022-08-19T18:14:35;9.60;;;3.92;;
40433;SDS011;26146;51.114;5.654;2022-08-19T18:18:37;24.65;;;4.40;;
40433;SDS011;26146;51.114;5.654;2022-08-19T18:22:40;10.13;;;4.03;;
40433;SDS011;26146;51.114;5.654;2022-08-19T18:26:43;8.93;;;3.70;;
40433;SDS011;26146;51.114;5.654;2022-08-19T18:30:44;10.05;;;3.85;;
40433;SDS011;26146;51.114;5.654;2022-08-19T18:34:45;11.48;;;4.05;;
40433;SDS011;26146;51.114;5.654;2022-08-19T18:38:46;10.43;;;4.20;;
40433;SDS011;26146;51.114;5.654;2022-08-19T18:43:06;9.30;;;3.63;;
40433;SDS011;26146;51.114;5.654;2022-08-19T18:47:10;10.25;;;3.80;;
40433;SDS011;26146;51.114;5.654;2022-08-19T18:51:29;10.63;;;3.75;;
40433;SDS011;26146;51.114;5.654;2022-08-19T18:55:34;10.15;;;3.97;;
40433;SDS011;26146;51.114;5.654;2022-08-19T18:59:35;8.32;;;3.88;;
40433;SDS011;26146;51.114;5.654;2022-08-19T19:03:37;9.77;;;4.18;;
40433;SDS011;26146;51.114;5.654;2022-08-19T19:07:49;8.93;;;3.60;;
40433;SDS011;26146;51.114;5.654;2022-08-19T19:11:53;9.05;;;3.30;;
40433;SDS011;26146;51.114;5.654;2022-08-19T19:15:57;8.90;;;3.20;;
40433;SDS011;26146;51.114;5.654;2022-08-19T19:20:00;8.65;;;3.20;;
40433;SDS011;26146;51.114;5.654;2022-08-19T19:24:01;7.57;;;3.10;;
40433;SDS011;26146;51.114;5.654;2022-08-19T19:28:02;7.85;;;3.50;;
40433;SDS011;26146;51.114;5.654;2022-08-19T19:32:04;9.05;;;3.03;;
40433;SDS011;26146;51.114;5.654;2022-08-19T19:36:06;7.53;;;3.10;;
40433;SDS011;26146;51.114;5.654;2022-08-19T19:40:08;8.75;;;3.60;;
40433;SDS011;26146;51.114;5.654;2022-08-19T19:44:09;8.20;;;3.28;;
40433;SDS011;26146;51.114;5.654;2022-08-19T19:48:11;6.93;;;3.10;;
40433;SDS011;26146;51.114;5.654;2022-08-19T19:52:15;8.05;;;3.38;;
40433;SDS011;26146;51.114;5.654;2022-08-19T19:56:17;6.72;;;2.88;;
40433;SDS011;26146;51.114;5.654;2022-08-19T20:00:19;8.05;;;3.15;;
40433;SDS011;26146;51.114;5.654;2022-08-19T20:04:20;8.95;;;3.20;;
40433;SDS011;26146;51.114;5.654;2022-08-19T20:08:25;8.13;;;3.35;;
40433;SDS011;26146;51.114;5.654;2022-08-19T20:12:45;6.60;;;3.20;;
40433;SDS011;26146;51.114;5.654;2022-08-19T20:16:49;8.90;;;3.40;;
40433;SDS011;26146;51.114;5.654;2022-08-19T20:20:50;8.55;;;3.35;;
40433;SDS011;26146;51.114;5.654;2022-08-19T20:24:51;7.82;;;3.60;;
40433;SDS011;26146;51.114;5.654;2022-08-19T20:28:53;9.32;;;4.20;;
40433;SDS011;26146;51.114;5.654;2022-08-19T20:32:54;8.35;;;3.80;;
40433;SDS011;26146;51.114;5.654;2022-08-19T20:36:55;14.82;;;4.38;;
40433;SDS011;26146;51.114;5.654;2022-08-19T20:40:56;8.05;;;4.05;;
40433;SDS011;26146;51.114;5.654;2022-08-19T20:44:57;8.27;;;4.15;;
40433;SDS011;26146;51.114;5.654;2022-08-19T20:48:58;8.65;;;3.97;;
40433;SDS011;26146;51.114;5.654;2022-08-19T20:53:00;9.80;;;4.13;;
40433;SDS011;26146;51.114;5.654;2022-08-19T20:57:08;8.98;;;4.47;;
40433;SDS011;26146;51.114;5.654;2022-08-19T21:01:09;8.98;;;4.68;;
40433;SDS011;26146;51.114;5.654;2022-08-19T21:05:10;10.02;;;4.50;;
40433;SDS011;26146;51.114;5.654;2022-08-19T21:09:12;8.40;;;4.65;;
40433;SDS011;26146;51.114;5.654;2022-08-19T21:13:13;9.63;;;4.53;;
40433;SDS011;26146;51.114;5.654;2022-08-19T21:17:15;9.57;;;4.45;;
40433;SDS011;26146;51.114;5.654;2022-08-19T21:21:16;10.00;;;4.43;;
40433;SDS011;26146;51.114;5.654;2022-08-19T21:25:17;11.15;;;4.80;;
40433;SDS011;26146;51.114;5.654;2022-08-19T21:29:20;10.07;;;4.47;;
40433;SDS011;26146;51.114;5.654;2022-08-19T21:33:22;9.88;;;5.10;;
40433;SDS011;26146;51.114;5.654;2022-08-19T21:37:24;9.23;;;4.65;;
40433;SDS011;26146;51.114;5.654;2022-08-19T21:41:25;11.20;;;4.82;;
40433;SDS011;26146;51.114;5.654;2022-08-19T21:45:28;9.85;;;4.90;;
40433;SDS011;26146;51.114;5.654;2022-08-19T21:49:29;11.45;;;5.65;;
40433;SDS011;26146;51.114;5.654;2022-08-19T21:53:31;10.95;;;5.43;;
40433;SDS011;26146;51.114;5.654;2022-08-19T21:57:32;10.82;;;5.50;;
40433;SDS011;26146;51.114;5.654;2022-08-19T22:01:33;11.27;;;5.50;;
40433;SDS011;26146;51.114;5.654;2022-08-19T22:05:37;10.80;;;5.30;;
40433;SDS011;26146;51.114;5.654;2022-08-19T22:09:41;11.63;;;5.13;;
40433;SDS011;26146;51.114;5.654;2022-08-19T22:13:44;12.82;;;6.05;;
40433;SDS011;26146;51.114;5.654;2022-08-19T22:17:45;11.45;;;6.22;;
40433;SDS011;26146;51.114;5.654;2022-08-19T22:21:46;12.18;;;6.25;;
40433;SDS011;26146;51.114;5.654;2022-08-19T22:25:47;11.95;;;6.18;;
40433;SDS011;26146;51.114;5.654;2022-08-19T22:29:51;10.65;;;6.15;;
40433;SDS011;26146;51.114;5.654;2022-08-19T22:33:51;12.93;;;6.47;;
40433;SDS011;26146;51.114;5.654;2022-08-19T22:37:52;18.85;;;7.22;;
40433;SDS011;26146;51.114;5.654;2022-08-19T22:41:53;12.65;;;6.82;;
40433;SDS011;26146;51.114;5.654;2022-08-19T22:45:54;15.02;;;7.10;;
40433;SDS011;26146;51.114;5.654;2022-08-19T22:49:56;12.00;;;7.10;;
40433;SDS011;26146;51.114;5.654;2022-08-19T22:53:57;12.23;;;6.88;;
40433;SDS011;26146;51.114;5.654;2022-08-19T22:57:59;13.38;;;7.05;;
40433;SDS011;26146;51.114;5.654;2022-08-19T23:02:00;13.85;;;6.60;;
40433;SDS011;26146;51.114;5.654;2022-08-19T23:06:00;14.15;;;7.22;;
40433;SDS011;26146;51.114;5.654;2022-08-19T23:10:06;13.40;;;6.30;;
40433;SDS011;26146;51.114;5.654;2022-08-19T23:14:09;14.90;;;7.40;;
40433;SDS011;26146;51.114;5.654;2022-08-19T23:18:12;15.05;;;7.13;;
40433;SDS011;26146;51.114;5.654;2022-08-19T23:22:17;14.65;;;6.90;;
40433;SDS011;26146;51.114;5.654;2022-08-19T23:26:19;12.77;;;6.65;;
40433;SDS011;26146;51.114;5.654;2022-08-19T23:30:20;13.45;;;6.47;;
40433;SDS011;26146;51.114;5.654;2022-08-19T23:34:27;11.20;;;5.80;;
40433;SDS011;26146;51.114;5.654;2022-08-19T23:38:30;12.88;;;5.32;;
40433;SDS011;26146;51.114;5.654;2022-08-19T23:42:31;9.00;;;4.30;;
40433;SDS011;26146;51.114;5.654;2022-08-19T23:46:32;9.57;;;3.95;;
40433;SDS011;26146;51.114;5.654;2022-08-19T23:50:39;8.70;;;3.30;;
40433;SDS011;26146;51.114;5.654;2022-08-19T23:54:41;7.25;;;3.60;;
40433;SDS011;26146;51.114;5.654;2022-08-19T23:58:42;8.77;;;3.90;;
